sensor_id;sensor_type;location;lat;lon;timestamp;temperature;humidity
7427;DHT22;3755;59.316;18.092;2022-09-13T00:01:19;12.90;99.90
7427;DHT22;3755;59.316;18.092;2022-09-13T00:03:46;12.70;99.90
7427;DHT22;3755;59.316;18.092;2022-09-13T00:06:19;12.70;99.90
7427;DHT22;3755;59.316;18.092;2022-09-13T00:08:47;12.80;99.90
7427;DHT22;3755;59.316;18.092;2022-09-13T00:11:15;12.70;99.90
7427;DHT22;3755;59.316;18.092;2022-09-13T00:13:45;12.80;99.90
7427;DHT22;3755;59.316;18.092;2022-09-13T00:16:14;12.80;99.90
7427;DHT22;3755;59.316;18.092;2022-09-13T00:18:42;12.80;99.90
7427;DHT22;3755;59.316;18.092;2022-09-13T00:21:11;12.80;99.90
7427;DHT22;3755;59.316;18.092;2022-09-13T00:23:39;12.80;99.90
7427;DHT22;3755;59.316;18.092;2022-09-13T00:26:12;12.80;99.90
7427;DHT22;3755;59.316;18.092;2022-09-13T00:28:39;12.80;99.90
7427;DHT22;3755;59.316;18.092;2022-09-13T00:31:09;12.80;99.90
7427;DHT22;3755;59.316;18.092;2022-09-13T00:33:37;12.80;99.90
7427;DHT22;3755;59.316;18.092;2022-09-13T00:36:05;12.80;99.90
7427;DHT22;3755;59.316;18.092;2022-09-13T00:38:34;12.80;99.90
7427;DHT22;3755;59.316;18.092;2022-09-13T00:41:02;12.80;99.90
7427;DHT22;3755;59.316;18.092;2022-09-13T00:43:46;12.80;99.90
7427;DHT22;3755;59.316;18.092;2022-09-13T00:46:19;12.80;99.90
7427;DHT22;3755;59.316;18.092;2022-09-13T00:48:49;12.80;99.90
7427;DHT22;3755;59.316;18.092;2022-09-13T00:51:19;12.80;99.90
7427;DHT22;3755;59.316;18.092;2022-09-13T00:53:49;12.80;99.90
7427;DHT22;3755;59.316;18.092;2022-09-13T00:56:31;12.70;99.90
7427;DHT22;3755;59.316;18.092;2022-09-13T00:59:24;12.70;99.90
7427;DHT22;3755;59.316;18.092;2022-09-13T01:01:55;12.70;99.90
7427;DHT22;3755;59.316;18.092;2022-09-13T01:04:26;12.70;99.90
7427;DHT22;3755;59.316;18.092;2022-09-13T01:06:58;12.70;99.90
7427;DHT22;3755;59.316;18.092;2022-09-13T01:09:29;12.70;99.90
7427;DHT22;3755;59.316;18.092;2022-09-13T01:12:01;12.70;99.90
7427;DHT22;3755;59.316;18.092;2022-09-13T01:14:33;12.80;99.90
7427;DHT22;3755;59.316;18.092;2022-09-13T01:17:03;12.80;99.90
7427;DHT22;3755;59.316;18.092;2022-09-13T01:19:32;12.80;99.90
7427;DHT22;3755;59.316;18.092;2022-09-13T01:22:38;12.80;99.90
7427;DHT22;3755;59.316;18.092;2022-09-13T01:25:33;12.90;99.90
7427;DHT22;3755;59.316;18.092;2022-09-13T01:31:19;12.90;99.90
7427;DHT22;3755;59.316;18.092;2022-09-13T01:34:08;12.80;99.90
7427;DHT22;3755;59.316;18.092;2022-09-13T01:36:53;12.80;99.90
7427;DHT22;3755;59.316;18.092;2022-09-13T01:39:35;12.80;99.90
7427;DHT22;3755;59.316;18.092;2022-09-13T01:42:14;12.80;99.90
7427;DHT22;3755;59.316;18.092;2022-09-13T01:44:58;12.80;99.90
7427;DHT22;3755;59.316;18.092;2022-09-13T01:47:34;12.80;99.90
7427;DHT22;3755;59.316;18.092;2022-09-13T01:50:11;12.80;99.90
7427;DHT22;3755;59.316;18.092;2022-09-13T01:52:49;12.80;99.90
7427;DHT22;3755;59.316;18.092;2022-09-13T01:55:25;12.80;99.90
7427;DHT22;3755;59.316;18.092;2022-09-13T01:58:02;12.80;99.90
7427;DHT22;3755;59.316;18.092;2022-09-13T02:00:40;12.80;99.90
7427;DHT22;3755;59.316;18.092;2022-09-13T02:03:16;12.90;99.90
7427;DHT22;3755;59.316;18.092;2022-09-13T02:05:49;12.90;99.90
7427;DHT22;3755;59.316;18.092;2022-09-13T02:08:21;12.90;99.90
7427;DHT22;3755;59.316;18.092;2022-09-13T02:10:55;12.90;99.90
7427;DHT22;3755;59.316;18.092;2022-09-13T02:13:30;12.90;99.90
7427;DHT22;3755;59.316;18.092;2022-09-13T02:16:06;13.00;99.90
7427;DHT22;3755;59.316;18.092;2022-09-13T02:18:38;13.00;99.90
7427;DHT22;3755;59.316;18.092;2022-09-13T02:21:10;13.00;99.90
7427;DHT22;3755;59.316;18.092;2022-09-13T02:23:42;13.00;99.90
7427;DHT22;3755;59.316;18.092;2022-09-13T02:26:17;13.00;99.90
7427;DHT22;3755;59.316;18.092;2022-09-13T02:29:10;13.00;99.90
7427;DHT22;3755;59.316;18.092;2022-09-13T02:31:59;13.10;99.90
7427;DHT22;3755;59.316;18.092;2022-09-13T02:34:47;13.10;99.90
7427;DHT22;3755;59.316;18.092;2022-09-13T02:37:16;13.20;99.90
7427;DHT22;3755;59.316;18.092;2022-09-13T02:39:46;13.20;99.90
7427;DHT22;3755;59.316;18.092;2022-09-13T02:42:18;13.20;99.90
7427;DHT22;3755;59.316;18.092;2022-09-13T02:44:49;13.20;99.90
7427;DHT22;3755;59.316;18.092;2022-09-13T02:47:33;13.30;99.90
7427;DHT22;3755;59.316;18.092;2022-09-13T02:50:20;13.40;99.90
7427;DHT22;3755;59.316;18.092;2022-09-13T02:52:52;13.30;99.90
7427;DHT22;3755;59.316;18.092;2022-09-13T02:55:28;13.30;99.90
7427;DHT22;3755;59.316;18.092;2022-09-13T02:58:01;13.30;99.90
7427;DHT22;3755;59.316;18.092;2022-09-13T03:00:28;13.30;99.90
7427;DHT22;3755;59.316;18.092;2022-09-13T03:02:58;13.30;99.90
7427;DHT22;3755;59.316;18.092;2022-09-13T03:05:27;13.30;99.90
7427;DHT22;3755;59.316;18.092;2022-09-13T03:07:55;13.30;99.90
7427;DHT22;3755;59.316;18.092;2022-09-13T03:10:22;13.30;99.90
7427;DHT22;3755;59.316;18.092;2022-09-13T03:13:06;13.30;99.90
7427;DHT22;3755;59.316;18.092;2022-09-13T03:15:48;13.40;99.90
7427;DHT22;3755;59.316;18.092;2022-09-13T03:18:33;13.40;99.90
7427;DHT22;3755;59.316;18.092;2022-09-13T03:21:27;13.40;99.90
7427;DHT22;3755;59.316;18.092;2022-09-13T03:24:03;13.40;99.90
7427;DHT22;3755;59.316;18.092;2022-09-13T03:26:43;13.40;99.90
7427;DHT22;3755;59.316;18.092;2022-09-13T03:29:27;13.40;99.90
7427;DHT22;3755;59.316;18.092;2022-09-13T03:32:07;13.50;99.90
7427;DHT22;3755;59.316;18.092;2022-09-13T03:34:47;13.50;99.90
7427;DHT22;3755;59.316;18.092;2022-09-13T03:37:26;13.50;99.90
7427;DHT22;3755;59.316;18.092;2022-09-13T03:40:01;13.60;99.90
7427;DHT22;3755;59.316;18.092;2022-09-13T03:42:33;13.60;99.90
7427;DHT22;3755;59.316;18.092;2022-09-13T03:45:02;13.70;99.90
7427;DHT22;3755;59.316;18.092;2022-09-13T03:47:32;13.70;99.90
7427;DHT22;3755;59.316;18.092;2022-09-13T03:50:01;13.80;99.90
7427;DHT22;3755;59.316;18.092;2022-09-13T03:52:39;13.90;99.90
7427;DHT22;3755;59.316;18.092;2022-09-13T03:55:07;13.90;99.90
7427;DHT22;3755;59.316;18.092;2022-09-13T03:57:36;14.00;99.90
7427;DHT22;3755;59.316;18.092;2022-09-13T04:00:05;14.00;99.90
7427;DHT22;3755;59.316;18.092;2022-09-13T04:02:38;14.00;99.90
7427;DHT22;3755;59.316;18.092;2022-09-13T04:05:14;14.10;99.90
7427;DHT22;3755;59.316;18.092;2022-09-13T04:07:46;14.10;99.90
7427;DHT22;3755;59.316;18.092;2022-09-13T04:10:18;14.20;99.90
7427;DHT22;3755;59.316;18.092;2022-09-13T04:12:53;14.20;99.90
7427;DHT22;3755;59.316;18.092;2022-09-13T04:15:21;14.20;99.90
7427;DHT22;3755;59.316;18.092;2022-09-13T04:17:49;14.30;99.90
7427;DHT22;3755;59.316;18.092;2022-09-13T04:20:18;14.30;99.90
7427;DHT22;3755;59.316;18.092;2022-09-13T04:22:51;14.30;99.90
7427;DHT22;3755;59.316;18.092;2022-09-13T04:25:18;14.30;99.90
7427;DHT22;3755;59.316;18.092;2022-09-13T04:27:46;14.30;99.90
7427;DHT22;3755;59.316;18.092;2022-09-13T04:30:16;14.30;99.90
7427;DHT22;3755;59.316;18.092;2022-09-13T04:32:43;14.40;99.90
7427;DHT22;3755;59.316;18.092;2022-09-13T04:35:11;14.40;99.90
7427;DHT22;3755;59.316;18.092;2022-09-13T04:37:38;14.40;99.90
7427;DHT22;3755;59.316;18.092;2022-09-13T04:40:08;14.40;99.90
7427;DHT22;3755;59.316;18.092;2022-09-13T04:42:36;14.40;99.90
7427;DHT22;3755;59.316;18.092;2022-09-13T04:45:04;14.40;99.90
7427;DHT22;3755;59.316;18.092;2022-09-13T04:47:34;14.50;99.90
7427;DHT22;3755;59.316;18.092;2022-09-13T04:50:01;14.40;99.90
7427;DHT22;3755;59.316;18.092;2022-09-13T04:52:42;14.50;99.90
7427;DHT22;3755;59.316;18.092;2022-09-13T04:55:11;14.60;99.90
7427;DHT22;3755;59.316;18.092;2022-09-13T04:57:39;14.60;99.90
7427;DHT22;3755;59.316;18.092;2022-09-13T05:00:08;14.60;99.90
7427;DHT22;3755;59.316;18.092;2022-09-13T05:02:36;14.60;99.90
7427;DHT22;3755;59.316;18.092;2022-09-13T05:05:29;14.70;99.90
7427;DHT22;3755;59.316;18.092;2022-09-13T05:08:16;14.70;99.90
7427;DHT22;3755;59.316;18.092;2022-09-13T05:10:45;14.70;99.90
7427;DHT22;3755;59.316;18.092;2022-09-13T05:13:17;14.70;99.90
7427;DHT22;3755;59.316;18.092;2022-09-13T05:15:44;14.80;99.90
7427;DHT22;3755;59.316;18.092;2022-09-13T05:18:13;14.80;99.90
7427;DHT22;3755;59.316;18.092;2022-09-13T05:20:41;14.80;99.90
7427;DHT22;3755;59.316;18.092;2022-09-13T05:23:20;14.80;99.90
7427;DHT22;3755;59.316;18.092;2022-09-13T05:25:53;14.80;99.90
7427;DHT22;3755;59.316;18.092;2022-09-13T05:28:20;14.80;99.90
7427;DHT22;3755;59.316;18.092;2022-09-13T05:30:54;14.80;99.90
7427;DHT22;3755;59.316;18.092;2022-09-13T05:33:22;14.80;99.90
7427;DHT22;3755;59.316;18.092;2022-09-13T05:35:52;14.80;99.90
7427;DHT22;3755;59.316;18.092;2022-09-13T05:38:23;14.80;99.90
7427;DHT22;3755;59.316;18.092;2022-09-13T05:44:04;14.90;99.90
7427;DHT22;3755;59.316;18.092;2022-09-13T05:46:46;14.90;99.90
7427;DHT22;3755;59.316;18.092;2022-09-13T05:49:27;14.90;99.90
7427;DHT22;3755;59.316;18.092;2022-09-13T05:51:55;15.00;99.90
7427;DHT22;3755;59.316;18.092;2022-09-13T05:54:23;14.90;99.90
7427;DHT22;3755;59.316;18.092;2022-09-13T05:56:58;15.10;99.90
7427;DHT22;3755;59.316;18.092;2022-09-13T05:59:32;15.10;99.90
7427;DHT22;3755;59.316;18.092;2022-09-13T06:02:01;15.10;99.90
7427;DHT22;3755;59.316;18.092;2022-09-13T06:04:28;15.10;99.90
7427;DHT22;3755;59.316;18.092;2022-09-13T06:07:04;15.10;99.90
7427;DHT22;3755;59.316;18.092;2022-09-13T06:09:31;15.00;99.90
7427;DHT22;3755;59.316;18.092;2022-09-13T06:11:58;15.10;99.90
7427;DHT22;3755;59.316;18.092;2022-09-13T06:14:26;15.00;99.90
7427;DHT22;3755;59.316;18.092;2022-09-13T06:16:55;15.10;99.90
7427;DHT22;3755;59.316;18.092;2022-09-13T06:19:22;15.10;99.90
7427;DHT22;3755;59.316;18.092;2022-09-13T06:21:50;15.10;99.90
7427;DHT22;3755;59.316;18.092;2022-09-13T06:24:17;15.10;99.90
7427;DHT22;3755;59.316;18.092;2022-09-13T06:26:45;15.10;99.90
7427;DHT22;3755;59.316;18.092;2022-09-13T06:29:14;15.10;99.90
7427;DHT22;3755;59.316;18.092;2022-09-13T06:31:42;15.10;99.90
7427;DHT22;3755;59.316;18.092;2022-09-13T06:34:12;15.10;99.90
7427;DHT22;3755;59.316;18.092;2022-09-13T06:36:41;15.10;99.90
7427;DHT22;3755;59.316;18.092;2022-09-13T06:39:09;15.10;99.90
7427;DHT22;3755;59.316;18.092;2022-09-13T06:41:37;15.00;99.90
7427;DHT22;3755;59.316;18.092;2022-09-13T06:44:06;15.00;99.90
7427;DHT22;3755;59.316;18.092;2022-09-13T06:46:37;15.00;99.90
7427;DHT22;3755;59.316;18.092;2022-09-13T06:49:15;15.00;99.90
7427;DHT22;3755;59.316;18.092;2022-09-13T06:51:42;14.90;99.90
7427;DHT22;3755;59.316;18.092;2022-09-13T06:54:10;14.80;99.90
7427;DHT22;3755;59.316;18.092;2022-09-13T06:56:37;14.90;99.90
7427;DHT22;3755;59.316;18.092;2022-09-13T06:59:07;14.90;99.90
7427;DHT22;3755;59.316;18.092;2022-09-13T07:01:37;14.80;99.90
7427;DHT22;3755;59.316;18.092;2022-09-13T07:04:06;14.70;99.90
7427;DHT22;3755;59.316;18.092;2022-09-13T07:06:37;14.70;99.90
7427;DHT22;3755;59.316;18.092;2022-09-13T07:09:07;14.60;99.90
7427;DHT22;3755;59.316;18.092;2022-09-13T07:11:35;14.60;99.90
7427;DHT22;3755;59.316;18.092;2022-09-13T07:14:03;14.60;99.90
7427;DHT22;3755;59.316;18.092;2022-09-13T07:16:32;14.60;99.90
7427;DHT22;3755;59.316;18.092;2022-09-13T07:19:02;15.50;99.90
7427;DHT22;3755;59.316;18.092;2022-09-13T07:21:31;14.50;99.90
7427;DHT22;3755;59.316;18.092;2022-09-13T07:24:00;14.50;99.90
7427;DHT22;3755;59.316;18.092;2022-09-13T07:26:27;14.60;99.90
7427;DHT22;3755;59.316;18.092;2022-09-13T07:28:57;14.60;99.90
7427;DHT22;3755;59.316;18.092;2022-09-13T07:31:26;14.50;99.90
7427;DHT22;3755;59.316;18.092;2022-09-13T07:33:56;14.60;99.90
7427;DHT22;3755;59.316;18.092;2022-09-13T07:36:26;14.50;99.90
7427;DHT22;3755;59.316;18.092;2022-09-13T07:38:54;14.60;99.90
7427;DHT22;3755;59.316;18.092;2022-09-13T07:41:28;14.60;99.90
7427;DHT22;3755;59.316;18.092;2022-09-13T07:43:59;14.60;99.90
7427;DHT22;3755;59.316;18.092;2022-09-13T07:46:28;14.60;99.90
7427;DHT22;3755;59.316;18.092;2022-09-13T07:48:57;14.60;99.90
7427;DHT22;3755;59.316;18.092;2022-09-13T07:51:26;14.60;99.90
7427;DHT22;3755;59.316;18.092;2022-09-13T07:53:55;14.60;99.90
7427;DHT22;3755;59.316;18.092;2022-09-13T07:56:27;14.70;99.90
7427;DHT22;3755;59.316;18.092;2022-09-13T07:58:58;14.60;99.90
7427;DHT22;3755;59.316;18.092;2022-09-13T08:01:27;14.50;99.90
7427;DHT22;3755;59.316;18.092;2022-09-13T08:03:56;14.30;99.90
7427;DHT22;3755;59.316;18.092;2022-09-13T08:06:25;14.40;99.90
7427;DHT22;3755;59.316;18.092;2022-09-13T08:08:59;14.30;99.90
7427;DHT22;3755;59.316;18.092;2022-09-13T08:11:57;14.30;99.90
7427;DHT22;3755;59.316;18.092;2022-09-13T08:14:25;14.30;99.90
7427;DHT22;3755;59.316;18.092;2022-09-13T08:16:55;14.30;99.90
7427;DHT22;3755;59.316;18.092;2022-09-13T08:19:22;14.20;99.90
7427;DHT22;3755;59.316;18.092;2022-09-13T08:21:50;14.10;99.90
7427;DHT22;3755;59.316;18.092;2022-09-13T08:24:18;14.10;99.90
7427;DHT22;3755;59.316;18.092;2022-09-13T08:26:47;14.10;99.90
7427;DHT22;3755;59.316;18.092;2022-09-13T08:29:18;14.10;99.90
7427;DHT22;3755;59.316;18.092;2022-09-13T08:31:48;14.10;99.90
7427;DHT22;3755;59.316;18.092;2022-09-13T08:34:17;14.10;99.90
7427;DHT22;3755;59.316;18.092;2022-09-13T08:36:46;14.10;99.90
7427;DHT22;3755;59.316;18.092;2022-09-13T08:39:15;14.10;99.90
7427;DHT22;3755;59.316;18.092;2022-09-13T08:42:03;14.00;99.90
7427;DHT22;3755;59.316;18.092;2022-09-13T08:44:51;14.00;99.90
7427;DHT22;3755;59.316;18.092;2022-09-13T08:47:31;14.00;99.90
7427;DHT22;3755;59.316;18.092;2022-09-13T08:50:09;14.00;99.90
7427;DHT22;3755;59.316;18.092;2022-09-13T08:52:53;14.00;99.90
7427;DHT22;3755;59.316;18.092;2022-09-13T08:55:31;14.00;99.90
7427;DHT22;3755;59.316;18.092;2022-09-13T08:58:06;14.00;99.90
7427;DHT22;3755;59.316;18.092;2022-09-13T09:00:41;14.00;99.90
7427;DHT22;3755;59.316;18.092;2022-09-13T09:03:23;14.00;99.90
7427;DHT22;3755;59.316;18.092;2022-09-13T09:05:54;14.00;99.90
7427;DHT22;3755;59.316;18.092;2022-09-13T09:08:31;13.90;99.90
7427;DHT22;3755;59.316;18.092;2022-09-13T09:11:25;14.00;99.90
7427;DHT22;3755;59.316;18.092;2022-09-13T09:13:58;14.00;99.90
7427;DHT22;3755;59.316;18.092;2022-09-13T09:16:34;14.00;99.90
7427;DHT22;3755;59.316;18.092;2022-09-13T09:19:16;13.90;99.90
7427;DHT22;3755;59.316;18.092;2022-09-13T09:21:46;13.90;99.90
7427;DHT22;3755;59.316;18.092;2022-09-13T09:24:19;13.90;99.90
7427;DHT22;3755;59.316;18.092;2022-09-13T09:26:56;13.80;99.90
7427;DHT22;3755;59.316;18.092;2022-09-13T09:29:35;13.80;99.90
7427;DHT22;3755;59.316;18.092;2022-09-13T09:32:19;13.80;99.90
7427;DHT22;3755;59.316;18.092;2022-09-13T09:35:02;13.80;99.90
7427;DHT22;3755;59.316;18.092;2022-09-13T09:37:34;13.90;99.90
7427;DHT22;3755;59.316;18.092;2022-09-13T09:40:05;13.90;99.90
7427;DHT22;3755;59.316;18.092;2022-09-13T09:42:39;14.00;99.90
7427;DHT22;3755;59.316;18.092;2022-09-13T09:45:25;14.00;99.90
7427;DHT22;3755;59.316;18.092;2022-09-13T09:47:55;14.10;99.90
7427;DHT22;3755;59.316;18.092;2022-09-13T09:50:28;14.20;99.90
7427;DHT22;3755;59.316;18.092;2022-09-13T09:53:02;14.20;99.90
7427;DHT22;3755;59.316;18.092;2022-09-13T09:55:34;14.40;99.90
7427;DHT22;3755;59.316;18.092;2022-09-13T09:58:04;14.50;99.90
7427;DHT22;3755;59.316;18.092;2022-09-13T10:00:34;14.40;99.90
7427;DHT22;3755;59.316;18.092;2022-09-13T10:03:04;14.40;99.90
7427;DHT22;3755;59.316;18.092;2022-09-13T10:05:32;14.40;99.90
7427;DHT22;3755;59.316;18.092;2022-09-13T10:08:03;14.40;99.90
7427;DHT22;3755;59.316;18.092;2022-09-13T10:10:36;14.40;99.90
7427;DHT22;3755;59.316;18.092;2022-09-13T10:13:12;14.40;99.90
7427;DHT22;3755;59.316;18.092;2022-09-13T10:15:52;14.40;99.90
7427;DHT22;3755;59.316;18.092;2022-09-13T10:18:27;14.50;99.90
7427;DHT22;3755;59.316;18.092;2022-09-13T10:21:01;14.60;99.90
7427;DHT22;3755;59.316;18.092;2022-09-13T10:23:29;14.70;99.90
7427;DHT22;3755;59.316;18.092;2022-09-13T10:26:04;14.80;99.90
7427;DHT22;3755;59.316;18.092;2022-09-13T10:28:40;14.90;99.90
7427;DHT22;3755;59.316;18.092;2022-09-13T10:31:10;14.90;99.90
7427;DHT22;3755;59.316;18.092;2022-09-13T10:33:42;14.90;99.90
7427;DHT22;3755;59.316;18.092;2022-09-13T10:36:14;14.90;99.90
7427;DHT22;3755;59.316;18.092;2022-09-13T10:38:50;14.90;99.90
7427;DHT22;3755;59.316;18.092;2022-09-13T10:41:25;14.80;99.90
7427;DHT22;3755;59.316;18.092;2022-09-13T10:43:56;14.80;99.90
7427;DHT22;3755;59.316;18.092;2022-09-13T10:46:25;14.80;99.90
7427;DHT22;3755;59.316;18.092;2022-09-13T10:49:02;14.70;99.90
7427;DHT22;3755;59.316;18.092;2022-09-13T10:51:35;14.90;99.90
7427;DHT22;3755;59.316;18.092;2022-09-13T10:54:08;15.10;99.90
7427;DHT22;3755;59.316;18.092;2022-09-13T10:56:36;15.30;99.90
7427;DHT22;3755;59.316;18.092;2022-09-13T10:59:18;15.40;99.90
7427;DHT22;3755;59.316;18.092;2022-09-13T11:01:56;15.40;99.90
7427;DHT22;3755;59.316;18.092;2022-09-13T11:05:04;15.50;99.90
7427;DHT22;3755;59.316;18.092;2022-09-13T11:07:47;15.60;99.90
7427;DHT22;3755;59.316;18.092;2022-09-13T11:10:21;15.50;99.90
7427;DHT22;3755;59.316;18.092;2022-09-13T11:12:58;15.50;99.90
7427;DHT22;3755;59.316;18.092;2022-09-13T11:15:41;15.50;99.90
7427;DHT22;3755;59.316;18.092;2022-09-13T11:21:23;15.40;99.90
7427;DHT22;3755;59.316;18.092;2022-09-13T11:24:13;14.90;99.90
7427;DHT22;3755;59.316;18.092;2022-09-13T11:26:49;15.40;99.90
7427;DHT22;3755;59.316;18.092;2022-09-13T11:29:29;15.40;99.90
7427;DHT22;3755;59.316;18.092;2022-09-13T11:32:08;15.40;99.90
7427;DHT22;3755;59.316;18.092;2022-09-13T11:34:47;15.40;99.90
7427;DHT22;3755;59.316;18.092;2022-09-13T11:37:34;15.40;99.90
7427;DHT22;3755;59.316;18.092;2022-09-13T11:40:29;15.50;99.90
7427;DHT22;3755;59.316;18.092;2022-09-13T11:43:07;15.70;99.90
7427;DHT22;3755;59.316;18.092;2022-09-13T11:45:43;15.90;99.90
7427;DHT22;3755;59.316;18.092;2022-09-13T11:48:37;15.70;99.90
7427;DHT22;3755;59.316;18.092;2022-09-13T11:51:17;16.10;99.90
7427;DHT22;3755;59.316;18.092;2022-09-13T11:54:06;16.10;99.90
7427;DHT22;3755;59.316;18.092;2022-09-13T11:56:42;16.00;99.90
7427;DHT22;3755;59.316;18.092;2022-09-13T11:59:18;15.70;99.90
7427;DHT22;3755;59.316;18.092;2022-09-13T12:01:49;15.40;99.90
7427;DHT22;3755;59.316;18.092;2022-09-13T12:04:24;15.40;99.90
7427;DHT22;3755;59.316;18.092;2022-09-13T12:06:58;15.20;99.90
7427;DHT22;3755;59.316;18.092;2022-09-13T12:09:32;15.40;99.90
7427;DHT22;3755;59.316;18.092;2022-09-13T12:12:08;15.00;99.90
7427;DHT22;3755;59.316;18.092;2022-09-13T12:14:45;15.00;99.90
7427;DHT22;3755;59.316;18.092;2022-09-13T12:17:52;14.70;99.90
7427;DHT22;3755;59.316;18.092;2022-09-13T12:20:30;14.70;99.90
7427;DHT22;3755;59.316;18.092;2022-09-13T12:23:16;14.70;99.90
7427;DHT22;3755;59.316;18.092;2022-09-13T12:28:45;14.60;99.90
7427;DHT22;3755;59.316;18.092;2022-09-13T12:31:18;14.60;99.90
7427;DHT22;3755;59.316;18.092;2022-09-13T12:33:48;14.60;99.90
7427;DHT22;3755;59.316;18.092;2022-09-13T12:36:46;14.60;99.90
7427;DHT22;3755;59.316;18.092;2022-09-13T12:42:43;14.50;99.90
7427;DHT22;3755;59.316;18.092;2022-09-13T12:45:24;14.40;99.90
7427;DHT22;3755;59.316;18.092;2022-09-13T12:48:07;14.40;99.90
7427;DHT22;3755;59.316;18.092;2022-09-13T12:50:50;14.40;99.90
7427;DHT22;3755;59.316;18.092;2022-09-13T12:53:31;14.40;99.90
7427;DHT22;3755;59.316;18.092;2022-09-13T12:56:08;14.40;99.90
7427;DHT22;3755;59.316;18.092;2022-09-13T12:59:02;14.40;99.90
7427;DHT22;3755;59.316;18.092;2022-09-13T13:01:40;14.40;99.90
7427;DHT22;3755;59.316;18.092;2022-09-13T13:04:17;14.30;99.90
7427;DHT22;3755;59.316;18.092;2022-09-13T13:06:49;14.30;99.90
7427;DHT22;3755;59.316;18.092;2022-09-13T13:09:24;14.30;99.90
7427;DHT22;3755;59.316;18.092;2022-09-13T13:12:25;14.30;99.90
7427;DHT22;3755;59.316;18.092;2022-09-13T13:14:56;14.20;99.90
7427;DHT22;3755;59.316;18.092;2022-09-13T13:17:42;14.30;99.90
7427;DHT22;3755;59.316;18.092;2022-09-13T13:20:44;14.30;99.90
7427;DHT22;3755;59.316;18.092;2022-09-13T13:23:19;14.20;99.90
7427;DHT22;3755;59.316;18.092;2022-09-13T13:26:04;14.20;99.90
7427;DHT22;3755;59.316;18.092;2022-09-13T13:29:11;14.20;99.90
7427;DHT22;3755;59.316;18.092;2022-09-13T13:31:45;14.10;99.90
7427;DHT22;3755;59.316;18.092;2022-09-13T13:34:41;14.10;99.90
7427;DHT22;3755;59.316;18.092;2022-09-13T13:37:36;14.10;99.90
7427;DHT22;3755;59.316;18.092;2022-09-13T13:40:20;14.10;99.90
7427;DHT22;3755;59.316;18.092;2022-09-13T13:43:31;14.10;99.90
7427;DHT22;3755;59.316;18.092;2022-09-13T13:46:23;14.10;99.90
7427;DHT22;3755;59.316;18.092;2022-09-13T13:48:53;14.10;99.90
7427;DHT22;3755;59.316;18.092;2022-09-13T13:51:29;14.10;99.90
7427;DHT22;3755;59.316;18.092;2022-09-13T13:54:28;14.40;99.90
7427;DHT22;3755;59.316;18.092;2022-09-13T13:56:56;14.70;99.90
7427;DHT22;3755;59.316;18.092;2022-09-13T13:59:27;14.80;99.90
7427;DHT22;3755;59.316;18.092;2022-09-13T14:02:00;14.90;99.90
7427;DHT22;3755;59.316;18.092;2022-09-13T14:10:43;15.50;99.90
7427;DHT22;3755;59.316;18.092;2022-09-13T14:13:27;15.50;99.90
7427;DHT22;3755;59.316;18.092;2022-09-13T14:16:02;15.50;99.90
7427;DHT22;3755;59.316;18.092;2022-09-13T14:18:49;15.40;99.90
7427;DHT22;3755;59.316;18.092;2022-09-13T14:21:22;15.40;99.90
7427;DHT22;3755;59.316;18.092;2022-09-13T14:27:15;15.40;99.90
7427;DHT22;3755;59.316;18.092;2022-09-13T14:29:48;15.40;99.90
7427;DHT22;3755;59.316;18.092;2022-09-13T14:32:21;15.40;99.90
7427;DHT22;3755;59.316;18.092;2022-09-13T14:34:55;15.50;99.90
7427;DHT22;3755;59.316;18.092;2022-09-13T14:37:27;15.50;99.90
7427;DHT22;3755;59.316;18.092;2022-09-13T14:39:57;15.50;99.90
7427;DHT22;3755;59.316;18.092;2022-09-13T14:42:25;15.70;99.90
7427;DHT22;3755;59.316;18.092;2022-09-13T14:44:53;15.70;99.90
7427;DHT22;3755;59.316;18.092;2022-09-13T14:47:27;15.70;99.90
7427;DHT22;3755;59.316;18.092;2022-09-13T14:50:00;15.70;99.90
7427;DHT22;3755;59.316;18.092;2022-09-13T14:52:34;15.80;99.90
7427;DHT22;3755;59.316;18.092;2022-09-13T14:55:06;15.70;99.90
7427;DHT22;3755;59.316;18.092;2022-09-13T14:57:36;15.80;99.90
7427;DHT22;3755;59.316;18.092;2022-09-13T15:00:06;15.80;99.90
7427;DHT22;3755;59.316;18.092;2022-09-13T15:02:47;15.80;99.90
7427;DHT22;3755;59.316;18.092;2022-09-13T15:05:18;15.90;99.90
7427;DHT22;3755;59.316;18.092;2022-09-13T15:07:47;15.90;99.90
7427;DHT22;3755;59.316;18.092;2022-09-13T15:10:23;15.80;99.90
7427;DHT22;3755;59.316;18.092;2022-09-13T15:12:53;15.60;99.90
7427;DHT22;3755;59.316;18.092;2022-09-13T15:15:36;15.60;99.90
7427;DHT22;3755;59.316;18.092;2022-09-13T15:18:05;15.40;99.90
7427;DHT22;3755;59.316;18.092;2022-09-13T15:20:47;15.30;99.90
7427;DHT22;3755;59.316;18.092;2022-09-13T15:23:21;15.30;99.90
7427;DHT22;3755;59.316;18.092;2022-09-13T15:25:52;15.50;99.90
7427;DHT22;3755;59.316;18.092;2022-09-13T15:28:22;15.60;99.90
7427;DHT22;3755;59.316;18.092;2022-09-13T15:30:50;15.70;99.90
7427;DHT22;3755;59.316;18.092;2022-09-13T15:33:27;15.70;99.90
7427;DHT22;3755;59.316;18.092;2022-09-13T15:36:21;15.70;99.90
7427;DHT22;3755;59.316;18.092;2022-09-13T15:38:58;15.70;99.90
7427;DHT22;3755;59.316;18.092;2022-09-13T15:41:28;15.70;99.90
7427;DHT22;3755;59.316;18.092;2022-09-13T15:44:10;15.50;99.90
7427;DHT22;3755;59.316;18.092;2022-09-13T15:46:45;15.50;99.90
7427;DHT22;3755;59.316;18.092;2022-09-13T15:49:15;15.50;99.90
7427;DHT22;3755;59.316;18.092;2022-09-13T15:51:44;15.60;99.90
7427;DHT22;3755;59.316;18.092;2022-09-13T15:54:31;15.80;99.90
7427;DHT22;3755;59.316;18.092;2022-09-13T15:57:15;15.90;99.90
7427;DHT22;3755;59.316;18.092;2022-09-13T15:59:53;15.90;99.90
7427;DHT22;3755;59.316;18.092;2022-09-13T16:02:23;15.80;99.90
7427;DHT22;3755;59.316;18.092;2022-09-13T16:05:12;15.70;99.90
7427;DHT22;3755;59.316;18.092;2022-09-13T16:08:04;15.70;99.90
7427;DHT22;3755;59.316;18.092;2022-09-13T16:10:48;15.60;99.90
7427;DHT22;3755;59.316;18.092;2022-09-13T16:13:19;15.60;99.90
7427;DHT22;3755;59.316;18.092;2022-09-13T16:15:49;15.50;99.90
7427;DHT22;3755;59.316;18.092;2022-09-13T16:18:17;15.50;99.90
7427;DHT22;3755;59.316;18.092;2022-09-13T16:20:47;15.50;99.90
7427;DHT22;3755;59.316;18.092;2022-09-13T16:23:18;15.40;99.90
7427;DHT22;3755;59.316;18.092;2022-09-13T16:29:23;15.30;99.90
7427;DHT22;3755;59.316;18.092;2022-09-13T16:31:50;15.20;99.90
7427;DHT22;3755;59.316;18.092;2022-09-13T16:34:17;15.20;99.90
7427;DHT22;3755;59.316;18.092;2022-09-13T16:36:48;15.10;99.90
7427;DHT22;3755;59.316;18.092;2022-09-13T16:39:15;15.00;99.90
7427;DHT22;3755;59.316;18.092;2022-09-13T16:41:43;15.00;99.90
7427;DHT22;3755;59.316;18.092;2022-09-13T16:44:11;15.00;99.90
7427;DHT22;3755;59.316;18.092;2022-09-13T16:46:42;14.90;99.90
7427;DHT22;3755;59.316;18.092;2022-09-13T16:49:09;14.90;99.90
7427;DHT22;3755;59.316;18.092;2022-09-13T16:51:38;14.90;99.90
7427;DHT22;3755;59.316;18.092;2022-09-13T16:54:07;14.80;99.90
7427;DHT22;3755;59.316;18.092;2022-09-13T16:56:52;14.80;99.90
7427;DHT22;3755;59.316;18.092;2022-09-13T16:59:34;14.70;99.90
7427;DHT22;3755;59.316;18.092;2022-09-13T17:02:08;14.70;99.90